Time;durP1;ratioP1;P1;durP2;ratioP2;P2;SDS_P1;SDS_P2;PMS_P1;PMS_P2;Temp;Humidity;BMP_temperature;BMP_pressure;BME280_temperature;BME280_humidity;BME280_pressure;Samples;Min_cycle;Max_cycle;Signal;HPM_P1;HPM_P2
2022/08/07 00:00:44;;;;;;;14.10;7.28;;;;;;;27.77;42.84;99493.63;5020783;28;20505;-70
2022/08/07 00:03:10;;;;;;;9.57;6.05;;;;;;;27.69;42.76;99477.00;5053202;28;20093;-69
2022/08/07 00:05:36;;;;;;;13.13;7.05;;;;;;;27.83;43.16;99494.47;5036377;28;20080;-70
2022/08/07 00:08:03;;;;;;;13.48;6.47;;;;;;;27.67;43.05;99474.53;5053096;28;20460;-70
2022/08/07 00:10:29;;;;;;;18.40;6.80;;;;;;;27.72;43.03;99495.53;5070739;28;20055;-69
2022/08/07 00:12:56;;;;;;;14.88;6.63;;;;;;;27.75;43.39;99493.06;5070894;28;20418;-69
2022/08/07 00:15:24;;;;;;;12.65;6.20;;;;;;;27.56;43.47;99500.16;5069806;28;20059;-69
2022/08/07 00:17:50;;;;;;;10.45;6.40;;;;;;;27.65;43.52;99492.25;5053286;28;20048;-70
2022/08/07 00:20:16;;;;;;;13.27;6.25;;;;;;;27.64;43.41;99498.81;5053220;28;20048;-69
2022/08/07 00:22:42;;;;;;;12.85;6.40;;;;;;;27.63;43.44;99494.47;5019981;28;20051;-70
2022/08/07 00:25:08;;;;;;;14.25;6.68;;;;;;;27.44;43.68;99471.50;5036329;28;20114;-69
2022/08/07 00:27:35;;;;;;;11.77;6.60;;;;;;;27.32;43.86;99458.13;5069634;28;20524;-69
2022/08/07 00:30:02;;;;;;;20.33;7.50;;;;;;;27.55;43.85;99498.53;5019519;28;20418;-69
2022/08/07 00:32:29;;;;;;;13.23;6.70;;;;;;;27.49;43.70;99494.13;5069796;28;20127;-69
2022/08/07 00:34:55;;;;;;;11.63;6.82;;;;;;;27.29;43.93;99475.00;5035623;28;20123;-69
2022/08/07 00:37:20;;;;;;;16.48;7.43;;;;;;;27.43;44.00;99495.22;5052482;28;20140;-69
2022/08/07 00:39:46;;;;;;;13.05;7.03;;;;;;;27.31;44.09;99493.84;5036323;28;20040;-69
2022/08/07 00:42:12;;;;;;;11.07;6.65;;;;;;;27.29;43.95;99493.31;5052656;28;20098;-68
2022/08/07 00:44:38;;;;;;;11.82;6.57;;;;;;;27.31;43.82;99491.94;5019560;28;20110;-67
2022/08/07 00:47:05;;;;;;;13.18;6.50;;;;;;;27.32;43.90;99495.50;5019717;28;20037;-69
2022/08/07 00:49:31;;;;;;;14.63;6.78;;;;;;;27.17;44.39;99495.44;5035779;28;20059;-70
2022/08/07 00:51:57;;;;;;;9.50;6.85;;;;;;;27.27;43.97;99500.94;5052577;28;20631;-69
2022/08/07 00:54:23;;;;;;;9.48;6.68;;;;;;;27.16;44.08;99497.34;5069108;28;20067;-70
2022/08/07 00:56:49;;;;;;;18.38;6.93;;;;;;;27.19;44.18;99498.69;5019951;28;20501;-76
2022/08/07 00:59:16;;;;;;;10.10;6.55;;;;;;;27.22;44.09;99495.44;5070807;28;20067;-69
2022/08/07 01:01:42;;;;;;;15.23;7.03;;;;;;;27.11;44.31;99494.59;5035920;28;20465;-70
2022/08/07 01:04:08;;;;;;;12.82;7.00;;;;;;;27.10;44.34;99489.41;5035917;28;20116;-69
2022/08/07 01:06:34;;;;;;;12.95;6.93;;;;;;;26.98;44.72;99492.38;5020498;28;20118;-69
2022/08/07 01:09:00;;;;;;;12.18;6.55;;;;;;;27.03;44.52;99494.31;5053326;28;20044;-68
2022/08/07 01:11:27;;;;;;;13.18;7.00;;;;;;;27.00;44.64;99500.28;5052547;28;20044;-70
2022/08/07 01:13:52;;;;;;;14.65;6.97;;;;;;;26.94;44.45;99493.19;5052835;28;20105;-69
2022/08/07 01:16:18;;;;;;;15.73;7.05;;;;;;;26.92;44.75;99492.63;5019837;28;20456;-69
2022/08/07 01:18:44;;;;;;;13.18;7.28;;;;;;;26.81;44.79;99499.94;5052491;28;20464;-69
2022/08/07 01:21:12;;;;;;;14.88;6.70;;;;;;;26.90;44.82;99497.50;5036046;28;20041;-69
2022/08/07 01:23:41;;;;;;;16.15;7.15;;;;;;;26.94;44.74;99493.19;5052480;28;20135;-69
2022/08/07 01:26:14;;;;;;;12.32;7.50;;;;;;;26.95;44.46;99492.09;5052763;28;20403;-69
2022/08/07 01:28:43;;;;;;;12.13;7.38;;;;;;;26.71;44.73;99480.00;5053142;28;20051;-69
2022/08/07 01:31:09;;;;;;;14.23;6.68;;;;;;;26.67;44.96;99479.72;5052110;28;20052;-70
2022/08/07 01:33:36;;;;;;;14.63;6.90;;;;;;;26.73;44.39;99489.56;5052397;28;20052;-68
2022/08/07 01:36:03;;;;;;;13.18;6.80;;;;;;;26.80;44.60;99497.50;5052317;28;20049;-68
2022/08/07 01:38:29;;;;;;;11.02;6.60;;;;;;;26.74;44.72;99491.19;5019225;28;20097;-69
2022/08/07 01:41:03;;;;;;;12.00;6.72;;;;;;;26.80;44.62;99494.75;5053118;28;20044;-69
2022/08/07 01:43:30;;;;;;;16.70;6.65;;;;;;;26.78;44.51;99494.19;5052253;28;20044;-69
2022/08/07 01:45:56;;;;;;;12.68;6.05;;;;;;;26.48;44.90;99476.59;5052088;28;20048;-69
2022/08/07 01:48:23;;;;;;;14.18;7.35;;;;;;;26.60;45.04;99497.38;5055201;28;20052;-70
2022/08/07 01:51:11;;;;;;;12.55;7.30;;;;;;;26.61;45.23;99493.53;5055721;28;20152;-69
2022/08/07 01:53:39;;;;;;;19.52;7.13;;;;;;;26.63;45.07;99497.69;5038759;28;20048;-69
2022/08/07 01:56:08;;;;;;;14.77;7.28;;;;;;;26.59;44.84;99488.34;5072036;28;20040;-70
2022/08/07 01:58:40;;;;;;;16.42;7.25;;;;;;;26.74;44.79;99498.56;5055641;28;20076;-69
2022/08/07 02:01:13;;;;;;;12.25;6.60;;;;;;;26.68;44.42;99486.00;5072144;28;20086;-68
2022/08/07 02:03:41;;;;;;;9.40;6.50;;;;;;;26.61;44.44;99486.19;5071824;28;20470;-70
2022/08/07 02:06:12;;;;;;;10.90;6.40;;;;;;;26.51;44.39;99469.78;5072108;28;20040;-67
2022/08/07 02:08:40;;;;;;;13.48;6.50;;;;;;;26.52;44.29;99480.41;5055329;28;20047;-69
2022/08/07 02:11:10;;;;;;;13.95;6.85;;;;;;;26.66;44.27;99478.09;5055431;28;20072;-69
2022/08/07 02:13:36;;;;;;;;;;;;;;;26.81;44.01;99494.50;5055862;28;20528;-69
2022/08/07 02:16:04;;;;;;;10.05;6.65;;;;;;;26.43;44.36;99460.22;5038418;28;19920;-69
2022/08/07 02:18:33;;;;;;;12.30;5.90;;;;;;;26.70;44.15;99483.81;5038291;28;20041;-69
2022/08/07 02:21:02;;;;;;;9.02;6.45;;;;;;;26.52;44.19;99466.00;5039278;28;20047;-69
2022/08/07 02:23:29;;;;;;;10.82;6.90;;;;;;;26.58;44.17;99473.09;5038360;28;20047;-69
2022/08/07 02:25:56;;;;;;;10.20;6.82;;;;;;;26.58;44.35;99477.72;5038433;28;20049;-69
2022/08/07 02:28:26;;;;;;;15.55;6.43;;;;;;;26.46;44.46;99464.34;5039246;28;20048;-69
2022/08/07 02:30:55;;;;;;;10.05;6.53;;;;;;;26.52;44.50;99479.63;5055679;28;20181;-76
2022/08/07 02:33:24;;;;;;;11.20;6.82;;;;;;;26.36;44.64;99453.38;5038288;28;20473;-69
2022/08/07 02:35:51;;;;;;;10.27;6.68;;;;;;;26.57;44.46;99478.81;5072087;28;20528;-68
2022/08/07 02:38:18;;;;;;;13.15;6.65;;;;;;;26.54;44.93;99468.47;5071426;28;20494;-68
2022/08/07 02:40:45;;;;;;;16.58;7.53;;;;;;;26.55;44.70;99478.25;5071681;28;20052;-69
2022/08/07 02:43:11;;;;;;;11.40;6.93;;;;;;;26.35;44.84;99468.88;5071500;28;20386;-69
2022/08/07 02:45:41;;;;;;;16.05;7.00;;;;;;;26.35;45.19;99471.59;5055053;28;20470;-69
2022/08/07 02:48:08;;;;;;;14.52;7.70;;;;;;;26.21;45.31;99475.09;5055208;28;20044;-69
2022/08/07 02:50:40;;;;;;;19.15;6.78;;;;;;;26.38;44.78;99479.28;5038098;28;20105;-68
2022/08/07 02:53:10;;;;;;;20.58;6.80;;;;;;;26.26;45.16;99465.03;5071263;28;20044;-69
2022/08/07 02:55:40;;;;;;;13.85;7.10;;;;;;;26.18;45.29;99467.44;5055068;28;20040;-67
2022/08/07 02:58:10;;;;;;;13.48;7.00;;;;;;;26.24;45.21;99474.56;5037370;28;20051;-69
2022/08/07 03:00:38;;;;;;;15.88;7.18;;;;;;;26.28;45.22;99487.38;5054228;28;20041;-74
2022/08/07 03:03:06;;;;;;;15.57;7.20;;;;;;;26.26;45.39;99489.53;5054273;28;20040;-71
2022/08/07 03:05:36;;;;;;;17.35;6.75;;;;;;;25.95;45.57;99470.53;5021926;28;20056;-68
2022/08/07 03:08:08;;;;;;;15.82;6.88;;;;;;;26.17;45.61;99493.03;5054103;28;20101;-68
2022/08/07 03:10:37;;;;;;;13.40;6.93;;;;;;;25.94;45.85;99469.69;5021729;28;20551;-69
2022/08/07 03:13:04;;;;;;;11.88;7.00;;;;;;;26.07;45.68;99491.06;5054091;28;20506;-69
2022/08/07 03:15:31;;;;;;;12.02;7.60;;;;;;;26.02;45.92;99492.91;5037980;28;20060;-69
2022/08/07 03:17:57;;;;;;;12.40;7.10;;;;;;;26.11;45.75;99500.34;5021463;28;20131;-77
2022/08/07 03:20:25;;;;;;;14.00;7.80;;;;;;;26.07;46.07;99488.34;5038380;28;20060;-69
2022/08/07 03:22:52;;;;;;;16.20;7.68;;;;;;;25.99;46.38;99471.66;5053989;28;20052;-69
2022/08/07 03:25:19;;;;;;;12.27;7.47;;;;;;;25.99;45.91;99491.53;5053858;28;20151;-69
2022/08/07 03:28:09;;;;;;;13.75;8.05;;;;;;;26.14;46.01;99491.63;5043022;28;20040;-69
2022/08/07 03:30:35;;;;;;;13.43;7.10;;;;;;;26.09;45.77;99496.25;5053500;28;20130;-69
2022/08/07 03:33:02;;;;;;;13.68;7.07;;;;;;;26.13;45.66;99487.28;5020856;28;20048;-69
2022/08/07 03:35:32;;;;;;;17.00;8.07;;;;;;;26.20;46.02;99492.50;5037989;28;20562;-70
2022/08/07 03:38:02;;;;;;;18.83;7.03;;;;;;;26.12;45.69;99469.28;5070220;28;20123;-72
2022/08/07 03:40:30;;;;;;;10.48;6.88;;;;;;;26.12;45.61;99473.94;5037397;28;20070;-70
2022/08/07 03:42:57;;;;;;;13.32;7.68;;;;;;;26.04;45.69;99466.25;5037869;28;20501;-69
2022/08/07 03:45:26;;;;;;;11.55;7.28;;;;;;;26.22;45.70;99496.59;5037843;28;20085;-69
2022/08/07 03:47:54;;;;;;;13.48;6.97;;;;;;;26.15;45.83;99481.56;5037128;28;20068;-69
2022/08/07 03:50:21;;;;;;;19.00;7.82;;;;;;;26.23;45.65;99481.88;5053458;28;20474;-69
2022/08/07 03:52:48;;;;;;;13.57;7.20;;;;;;;26.33;45.51;99492.03;5036898;28;20044;-69
2022/08/07 03:55:15;;;;;;;15.90;7.90;;;;;;;26.34;45.46;99490.94;5053382;28;20047;-69
2022/08/07 03:57:45;;;;;;;16.88;7.55;;;;;;;26.43;45.36;99475.75;5037702;28;20874;-70
2022/08/07 04:00:14;;;;;;;14.23;7.57;;;;;;;26.31;45.44;99475.97;5069732;28;20462;-69
2022/08/07 04:02:46;;;;;;;22.23;7.60;;;;;;;26.40;45.42;99485.25;5054054;28;20131;-69
2022/08/07 04:05:21;;;;;;;13.93;7.35;;;;;;;26.55;45.36;99489.97;5069985;28;20135;-72
2022/08/07 04:07:50;;;;;;;16.00;7.43;;;;;;;26.63;45.13;99486.78;5037241;28;20044;-71
2022/08/07 04:10:20;;;;;;;13.70;7.25;;;;;;;26.52;45.07;99477.69;5069850;28;20107;-69
2022/08/07 04:12:48;;;;;;;11.52;6.88;;;;;;;26.76;44.46;99485.47;5037135;28;20050;-71
2022/08/07 04:15:15;;;;;;;16.63;6.75;;;;;;;26.82;44.56;99503.47;5037155;28;20101;-71
2022/08/07 04:17:42;;;;;;;13.77;6.30;;;;;;;26.67;44.44;99495.22;5036875;28;20093;-70
2022/08/07 04:20:09;;;;;;;15.00;6.40;;;;;;;26.85;44.11;99492.06;5053019;28;20044;-70
2022/08/07 04:22:36;;;;;;;17.00;6.43;;;;;;;26.91;43.63;99499.97;5069509;28;20060;-70
2022/08/07 04:25:05;;;;;;;12.32;6.03;;;;;;;26.91;43.75;99499.16;5036423;28;20053;-69
2022/08/07 04:27:33;;;;;;;8.60;6.18;;;;;;;27.05;43.50;99498.38;5053206;28;20570;-69
2022/08/07 04:29:59;;;;;;;16.33;6.75;;;;;;;27.00;43.72;99505.75;5070249;28;20045;-70
2022/08/07 04:32:31;;;;;;;19.25;7.05;;;;;;;26.93;43.23;99480.63;5053966;28;20048;-69
2022/08/07 04:34:57;;;;;;;11.10;6.72;;;;;;;26.98;43.53;99483.38;5053148;28;20051;-69
2022/08/07 04:37:24;;;;;;;15.90;6.45;;;;;;;27.18;43.56;99492.44;5069978;28;20032;-69
2022/08/07 04:39:51;;;;;;;9.95;6.65;;;;;;;27.25;43.27;99497.63;5036896;28;20040;-69
2022/08/07 04:42:17;;;;;;;9.32;6.07;;;;;;;27.36;42.87;99505.59;5036458;28;20047;-69
2022/08/07 04:44:44;;;;;;;11.25;6.10;;;;;;;27.50;42.57;99505.88;5019948;28;20037;-70
2022/08/07 04:47:22;;;;;;;11.18;6.43;;;;;;;27.68;42.27;99508.06;5036428;28;20055;-70
2022/08/07 04:50:03;;;;;;;9.43;6.10;;;;;;;27.75;42.47;99514.09;5052740;28;20134;-70
2022/08/07 04:52:38;;;;;;;19.13;5.97;;;;;;;27.87;42.21;99511.94;5069977;28;20044;-68
2022/08/07 04:55:35;;;;;;;15.27;6.53;;;;;;;27.97;42.25;99517.41;5053046;28;20529;-69
2022/08/07 04:58:15;;;;;;;12.63;6.85;;;;;;;27.76;42.44;99483.81;5056495;28;20052;-69
2022/08/07 05:01:15;;;;;;;21.08;8.32;;;;;;;27.99;42.45;99507.03;5069492;28;20068;-69
2022/08/07 05:03:58;;;;;;;30.58;13.13;;;;;;;28.14;42.17;99509.75;5052092;28;20055;-69
2022/08/07 05:06:48;;;;;;;17.45;7.90;;;;;;;28.26;42.06;99504.81;5053083;28;20052;-69
2022/08/07 05:09:26;;;;;;;19.17;10.32;;;;;;;28.37;41.92;99511.09;5052636;28;20091;-69
2022/08/07 05:11:53;;;;;;;13.88;7.82;;;;;;;28.15;42.46;99513.31;5069271;28;20134;-69
2022/08/07 05:14:26;;;;;;;12.45;7.30;;;;;;;28.32;42.59;99511.91;5069177;28;20059;-69
2022/08/07 05:16:56;;;;;;;16.90;6.95;;;;;;;28.34;42.45;99512.44;5052590;28;20044;-69
2022/08/07 05:19:24;;;;;;;20.42;6.18;;;;;;;28.44;41.95;99523.38;5035868;28;20505;-69
2022/08/07 05:21:55;;;;;;;11.93;5.82;;;;;;;28.55;42.01;99516.81;5053352;28;20041;-69
2022/08/07 05:24:22;;;;;;;11.98;7.00;;;;;;;28.67;41.84;99527.44;5023460;28;20043;-69
2022/08/07 05:26:52;;;;;;;25.33;7.28;;;;;;;28.66;42.16;99517.59;5056325;28;20044;-69
2022/08/07 05:29:20;;;;;;;15.27;8.15;;;;;;;28.97;41.17;99517.19;5056132;28;20174;-69
2022/08/07 05:31:47;;;;;;;11.40;5.70;;;;;;;29.09;40.66;99516.91;5039632;28;20394;-69
2022/08/07 05:34:16;;;;;;;12.88;6.20;;;;;;;29.16;40.72;99520.13;5023737;28;20513;-69
2022/08/07 05:36:50;;;;;;;15.75;6.38;;;;;;;29.24;40.49;99512.19;5039999;28;20421;-69
2022/08/07 05:39:36;;;;;;;19.50;7.10;;;;;;;29.23;40.48;99512.47;5058093;28;20080;-70
2022/08/07 05:42:04;;;;;;;10.25;5.55;;;;;;;29.45;39.60;99516.41;5039470;28;20048;-70
2022/08/07 05:44:33;;;;;;;12.25;5.40;;;;;;;29.65;39.08;99539.28;5039801;28;20042;-70
2022/08/07 05:47:00;;;;;;;13.85;5.40;;;;;;;29.51;40.02;99533.59;5056390;28;20059;-70
2022/08/07 05:49:26;;;;;;;17.15;6.38;;;;;;;29.59;39.63;99519.34;5039167;28;20044;-69
2022/08/07 05:51:53;;;;;;;18.58;5.60;;;;;;;29.71;39.54;99532.72;5055809;28;20047;-69
2022/08/07 05:54:21;;;;;;;7.97;4.97;;;;;;;29.92;39.04;99528.69;5023639;28;20044;-70
2022/08/07 05:56:48;;;;;;;11.93;5.50;;;;;;;30.18;38.65;99530.94;5039397;28;20056;-70
2022/08/07 05:59:18;;;;;;;11.23;5.07;;;;;;;30.45;37.88;99517.53;5039056;28;20059;-69
2022/08/07 06:01:48;;;;;;;12.75;5.03;;;;;;;30.67;37.42;99542.53;5056365;28;20048;-69
2022/08/07 06:04:17;;;;;;;26.15;5.15;;;;;;;31.08;36.83;99529.16;5038968;28;20452;-69
2022/08/07 06:06:43;;;;;;;15.18;4.90;;;;;;;31.22;36.21;99526.50;5055826;28;20051;-70
2022/08/07 06:09:10;;;;;;;11.10;5.15;;;;;;;31.65;35.67;99526.19;5022603;28;20581;-69
2022/08/07 06:11:40;;;;;;;14.68;4.97;;;;;;;32.06;34.71;99527.19;5056212;28;20040;-69
2022/08/07 06:14:07;;;;;;;18.65;5.70;;;;;;;32.54;34.31;99534.03;5022531;28;20143;-78
2022/08/07 06:16:34;;;;;;;14.40;4.70;;;;;;;32.90;32.41;99530.63;5022710;28;20044;-69
2022/08/07 06:19:02;;;;;;;19.08;4.60;;;;;;;33.09;32.73;99525.81;5055886;28;20065;-69
2022/08/07 06:21:29;;;;;;;14.80;4.88;;;;;;;33.17;32.78;99511.34;5038762;28;20124;-71
2022/08/07 06:23:57;;;;;;;18.67;5.07;;;;;;;33.22;32.14;99527.72;5022244;28;20044;-69
2022/08/07 06:26:26;;;;;;;13.57;5.28;;;;;;;33.16;32.33;99531.72;5038383;28;20068;-69
2022/08/07 06:28:58;;;;;;;16.25;5.18;;;;;;;33.01;32.65;99543.88;5038789;28;20040;-69
2022/08/07 06:31:25;;;;;;;11.80;4.78;;;;;;;32.88;32.70;99541.94;5055919;28;20165;-69
2022/08/07 06:33:53;;;;;;;10.73;4.60;;;;;;;32.93;32.50;99538.25;5054792;28;20040;-69
2022/08/07 06:36:19;;;;;;;12.77;4.72;;;;;;;33.13;32.33;99546.91;5022135;28;20056;-69
2022/08/07 06:38:49;;;;;;;;;;;;;;;33.21;32.12;99542.63;5056024;28;20127;-69
2022/08/07 06:41:19;;;;;;;15.93;5.10;;;;;;;33.19;32.47;99533.84;5054802;28;19917;-69
2022/08/07 06:43:47;;;;;;;7.55;4.38;;;;;;;33.04;32.07;99520.41;5054710;28;20041;-70
2022/08/07 06:46:18;;;;;;;12.27;4.32;;;;;;;33.11;32.12;99520.81;5023327;28;20128;-70
2022/08/07 06:48:44;;;;;;;11.02;4.90;;;;;;;33.30;31.82;99518.75;5037986;28;20051;-70
2022/08/07 06:51:19;;;;;;;15.30;4.57;;;;;;;33.55;31.79;99526.47;5022255;28;20048;-70
2022/08/07 06:53:45;;;;;;;10.73;4.30;;;;;;;33.52;31.68;99518.81;5037885;28;20080;-70
2022/08/07 06:56:15;;;;;;;15.63;4.28;;;;;;;33.86;30.83;99527.38;5037958;28;20517;-70
2022/08/07 06:58:43;;;;;;;9.30;3.83;;;;;;;33.89;30.64;99521.28;5054538;28;20055;-71
2022/08/07 07:01:11;;;;;;;9.05;3.95;;;;;;;34.04;29.52;99524.44;5038026;28;20139;-70
2022/08/07 07:03:39;;;;;;;12.88;3.35;;;;;;;34.33;29.50;99525.91;5054323;28;20420;-70
2022/08/07 07:06:09;;;;;;;9.18;3.78;;;;;;;34.50;28.89;99524.09;5071188;28;20117;-69
2022/08/07 07:08:35;;;;;;;8.40;3.40;;;;;;;34.78;27.45;99519.19;5054113;28;20048;-69
2022/08/07 07:11:03;;;;;;;10.57;3.47;;;;;;;34.92;27.36;99520.69;5054102;28;20044;-70
2022/08/07 07:13:37;;;;;;;11.27;3.80;;;;;;;35.38;26.86;99534.00;5054403;28;20040;-69
2022/08/07 07:16:07;;;;;;;9.68;3.63;;;;;;;35.88;26.06;99545.41;5053983;28;20144;-69
2022/08/07 07:18:49;;;;;;;10.05;3.30;;;;;;;36.21;25.33;99536.28;5054249;28;20044;-72
2022/08/07 07:21:26;;;;;;;9.10;3.90;;;;;;;36.66;25.04;99536.66;5071900;28;20375;-69
2022/08/07 07:23:53;;;;;;;9.45;3.45;;;;;;;36.98;24.62;99503.63;5053831;28;20052;-70
2022/08/07 07:26:21;;;;;;;14.18;3.70;;;;;;;37.97;22.83;99507.47;5020566;28;20036;-72
2022/08/07 07:28:57;;;;;;;7.13;3.03;;;;;;;39.49;20.41;99522.59;5053818;28;20048;-70
2022/08/07 07:31:28;;;;;;;8.55;3.20;;;;;;;41.28;18.65;99505.19;5070383;28;20033;-70
2022/08/07 07:33:58;;;;;;;11.68;2.95;;;;;;;43.17;16.83;99527.66;5053802;28;20040;-70
2022/08/07 07:36:24;;;;;;;;;;;;;;;44.36;15.46;99523.66;5054144;28;20045;-70
2022/08/07 07:38:50;;;;;;;6.15;2.55;;;;;;;44.75;14.61;99526.03;5037096;28;20416;-69
2022/08/07 07:41:17;;;;;;;3.63;2.45;;;;;;;44.22;15.61;99522.66;5037178;28;20154;-71
2022/08/07 07:43:45;;;;;;;7.50;2.88;;;;;;;41.73;17.04;99525.72;5053574;28;20363;-70
2022/08/07 07:46:12;;;;;;;16.48;3.05;;;;;;;39.46;19.85;99512.97;5069875;28;20451;-70
2022/08/07 07:48:38;;;;;;;8.60;3.00;;;;;;;38.69;20.68;99507.66;5037306;28;20113;-70
2022/08/07 07:51:05;;;;;;;7.60;2.70;;;;;;;38.60;21.45;99505.00;5053188;28;20062;-70
2022/08/07 07:53:31;;;;;;;9.07;2.75;;;;;;;38.69;21.60;99500.16;5053244;28;20509;-69
2022/08/07 07:55:58;;;;;;;4.40;3.03;;;;;;;38.97;21.12;99494.72;5053188;28;20044;-70
2022/08/07 07:58:35;;;;;;;8.35;3.20;;;;;;;41.48;18.83;99499.28;5053295;28;20044;-70
2022/08/07 08:01:02;;;;;;;9.13;3.20;;;;;;;43.93;16.44;99503.94;5069796;28;20394;-70
2022/08/07 08:03:29;;;;;;;6.65;2.90;;;;;;;44.67;15.54;99505.56;5053206;28;20048;-70
2022/08/07 08:05:55;;;;;;;5.72;2.75;;;;;;;45.79;14.35;99511.13;5069858;28;20052;-70
2022/08/07 08:08:26;;;;;;;11.52;3.05;;;;;;;45.49;14.19;99516.97;5053312;28;20055;-70
2022/08/07 08:10:53;;;;;;;14.73;2.75;;;;;;;44.69;15.29;99517.97;5070932;28;20044;-70
2022/08/07 08:13:23;;;;;;;5.40;3.08;;;;;;;43.70;16.05;99509.66;5052825;28;20040;-70
2022/08/07 08:15:49;;;;;;;12.70;3.20;;;;;;;44.62;14.98;99509.50;5036245;28;20040;-71
2022/08/07 08:18:15;;;;;;;5.60;2.50;;;;;;;46.23;14.31;99508.06;5036321;28;20055;-71
2022/08/07 08:20:42;;;;;;;8.45;2.90;;;;;;;47.29;12.70;99516.16;5053215;28;20036;-70
2022/08/07 08:28:40;;;;;;;4.30;2.30;;;;;;;48.84;11.35;99504.09;5038490;28;20501;-72
2022/08/07 08:31:12;;;;;;;7.03;3.10;;;;;;;49.80;10.48;99491.34;5069405;28;20040;-71
2022/08/07 08:33:38;;;;;;;11.77;2.35;;;;;;;50.38;9.83;99492.97;5036161;28;20055;-71
2022/08/07 08:36:12;;;;;;;9.38;2.30;;;;;;;49.88;10.29;99475.09;5054162;28;20094;-70
2022/08/07 08:38:41;;;;;;;10.80;2.40;;;;;;;51.78;9.41;99475.41;5036325;28;20045;-70
2022/08/07 08:41:15;;;;;;;11.25;2.55;;;;;;;51.91;9.09;99508.31;5052598;28;20477;-71
2022/08/07 08:44:11;;;;;;;10.20;2.55;;;;;;;51.53;9.21;99473.09;5036189;28;20048;-71
2022/08/07 08:46:57;;;;;;;13.48;2.30;;;;;;;49.59;10.58;99476.69;5069315;28;20043;-70
2022/08/07 08:49:41;;;;;;;6.32;2.08;;;;;;;48.53;11.41;99455.16;5052472;28;20052;-70
2022/08/07 08:52:22;;;;;;;7.90;2.10;;;;;;;48.17;11.70;99462.28;5019595;28;20131;-70
2022/08/07 08:55:14;;;;;;;9.27;1.92;;;;;;;46.11;12.73;99458.66;5052482;28;20059;-70
2022/08/07 08:57:55;;;;;;;10.15;2.55;;;;;;;44.95;13.72;99454.50;5038630;28;20109;-70
2022/08/07 09:00:22;;;;;;;7.80;2.40;;;;;;;44.92;14.09;99452.47;5073173;28;20136;-71
2022/08/07 09:02:57;;;;;;;7.05;2.75;;;;;;;45.53;13.24;99444.84;5073308;28;20078;-69
2022/08/07 09:05:31;;;;;;;9.35;2.60;;;;;;;45.57;13.37;99448.47;5073210;28;20101;-70
2022/08/07 09:08:17;;;;;;;8.48;2.67;;;;;;;45.67;13.19;99453.28;5073086;28;20119;-70
2022/08/07 09:10:47;;;;;;;4.68;2.17;;;;;;;46.04;13.14;99451.00;5073289;28;20053;-70
2022/08/07 09:13:54;;;;;;;11.73;2.63;;;;;;;45.58;13.29;99452.88;5040153;28;20040;-70
2022/08/07 09:16:28;;;;;;;11.77;2.75;;;;;;;46.42;12.61;99440.25;5039686;28;20043;-70
2022/08/07 09:19:09;;;;;;;8.35;2.78;;;;;;;47.77;11.95;99442.38;5056143;28;20036;-72
2022/08/07 09:22:22;;;;;;;9.90;2.47;;;;;;;48.51;11.02;99453.97;5074151;28;20051;-69
2022/08/07 09:25:02;;;;;;;9.20;2.92;;;;;;;49.83;9.88;99439.66;5039280;28;20048;-81
2022/08/07 09:27:34;;;;;;;9.63;1.90;;;;;;;49.60;9.69;99450.84;5039441;28;20143;-71
2022/08/07 09:30:06;;;;;;;7.95;2.10;;;;;;;48.48;10.39;99426.63;5022970;28;20123;-71
2022/08/07 09:32:57;;;;;;;10.65;2.15;;;;;;;47.98;11.07;99442.28;5056398;28;20051;-73
2022/08/07 09:35:30;;;;;;;4.30;2.08;;;;;;;47.59;10.96;99431.22;5055927;28;20063;-70
2022/08/07 09:38:06;;;;;;;6.30;2.13;;;;;;;45.89;12.75;99414.88;5072554;28;20036;-72
2022/08/07 09:40:39;;;;;;;9.23;2.10;;;;;;;43.76;13.89;99426.97;5072683;28;20137;-70
2022/08/07 09:43:29;;;;;;;5.88;2.47;;;;;;;43.31;14.50;99402.00;5039292;28;20106;-70
2022/08/07 09:46:01;;;;;;;8.20;2.20;;;;;;;44.06;13.75;99405.28;5055636;28;20178;-70
2022/08/07 09:48:45;;;;;;;8.90;2.40;;;;;;;43.18;14.56;99387.47;5039250;28;20044;-69
2022/08/07 09:51:19;;;;;;;5.70;2.25;;;;;;;42.06;15.98;99388.47;5072556;28;20472;-70
2022/08/07 09:53:51;;;;;;;10.07;2.20;;;;;;;41.67;16.64;99382.13;5072946;28;20040;-70
2022/08/07 09:56:28;;;;;;;9.60;2.63;;;;;;;39.76;18.45;99374.41;5072874;28;20498;-70
2022/08/07 09:59:31;;;;;;;4.78;2.20;;;;;;;42.61;15.71;99401.78;5039145;28;20106;-70
2022/08/07 10:02:24;;;;;;;6.20;2.25;;;;;;;44.57;14.01;99399.75;5055840;28;20041;-70
2022/08/07 10:05:00;;;;;;;10.07;2.50;;;;;;;43.87;13.65;99387.88;5038299;28;20102;-71
2022/08/07 10:07:48;;;;;;;8.15;2.20;;;;;;;42.38;15.06;99398.22;5053967;28;20143;-70
2022/08/07 10:10:37;;;;;;;14.40;2.63;;;;;;;40.47;17.31;99377.88;5021627;28;20505;-70
2022/08/07 10:13:36;;;;;;;7.07;2.20;;;;;;;40.87;17.57;99360.91;5054514;28;20036;-70
2022/08/07 10:16:40;;;;;;;6.05;2.50;;;;;;;41.62;17.10;99374.09;5070918;28;20040;-70
2022/08/07 10:19:27;;;;;;;10.32;2.30;;;;;;;41.12;17.61;99377.00;5037056;28;20048;-70
2022/08/07 10:22:05;;;;;;;5.45;2.35;;;;;;;40.78;17.65;99377.03;5054128;28;20497;-70
2022/08/07 10:24:46;;;;;;;9.93;2.40;;;;;;;39.93;18.27;99362.97;5037741;28;20137;-70
2022/08/07 10:27:11;;;;;;;7.57;2.45;;;;;;;39.67;18.80;99362.66;5070640;28;20463;-69
2022/08/07 10:29:58;;;;;;;11.98;2.58;;;;;;;40.99;17.68;99374.72;5037142;28;20048;-69
2022/08/07 10:32:37;;;;;;;11.32;2.60;;;;;;;41.45;17.03;99377.31;5053597;28;20052;-70
2022/08/07 10:35:12;;;;;;;6.95;2.42;;;;;;;40.67;17.76;99375.94;5053726;28;20101;-70
2022/08/07 10:38:01;;;;;;;7.20;2.67;;;;;;;40.60;17.73;99354.31;5053747;28;20089;-69
2022/08/07 10:40:53;;;;;;;6.20;2.50;;;;;;;41.00;17.68;99377.13;5037143;28;20067;-70
2022/08/07 10:43:42;;;;;;;9.48;2.40;;;;;;;41.76;17.14;99370.75;5036828;28;20145;-70
2022/08/07 10:46:25;;;;;;;7.18;2.45;;;;;;;42.28;16.53;99370.09;5036988;28;20424;-70
2022/08/07 10:49:13;;;;;;;9.75;2.50;;;;;;;42.34;15.46;99374.19;5053879;28;20044;-70
2022/08/07 10:52:08;;;;;;;9.00;2.72;;;;;;;41.68;16.23;99369.81;5037002;28;20463;-70
2022/08/07 10:55:09;;;;;;;14.25;2.47;;;;;;;39.93;16.57;99380.47;5038476;28;20047;-70
2022/08/07 10:57:55;;;;;;;7.57;2.40;;;;;;;41.16;16.70;99377.91;5080585;28;20048;-70
2022/08/07 11:00:27;;;;;;;8.40;2.47;;;;;;;41.83;15.45;99370.09;5037833;28;20166;-78
2022/08/07 11:03:15;;;;;;;9.82;2.97;;;;;;;42.51;15.01;99366.09;5070100;28;20048;-71
2022/08/07 11:06:16;;;;;;;5.13;2.40;;;;;;;41.84;15.74;99352.16;5010507;28;1253012;-70
2022/08/07 11:08:42;;;;;;;11.15;2.60;;;;;;;42.08;15.61;99355.41;5053476;28;20047;-70
2022/08/07 11:11:21;;;;;;;12.20;2.65;;;;;;;41.31;14.56;99351.13;5072144;28;20417;-70
2022/08/07 11:13:56;;;;;;;4.95;2.30;;;;;;;39.79;16.19;99371.72;5054490;28;20036;-70
2022/08/07 11:16:42;;;;;;;7.18;2.38;;;;;;;39.51;16.15;99359.00;5071049;28;20040;-70
2022/08/07 11:19:17;;;;;;;10.43;2.60;;;;;;;39.29;17.22;99343.69;5020433;28;20083;-70
2022/08/07 11:22:25;;;;;;;5.90;2.33;;;;;;;39.63;17.43;99339.47;5020954;28;20466;-71
2022/08/07 11:24:58;;;;;;;7.28;2.17;;;;;;;39.11;17.15;99338.78;5054551;28;20101;-71
2022/08/07 11:27:35;;;;;;;4.65;2.22;;;;;;;38.95;17.72;99335.13;5053857;28;20443;-78
2022/08/07 11:30:06;;;;;;;6.53;2.05;;;;;;;38.59;16.83;99361.00;5070885;28;20070;-70
2022/08/07 11:32:53;;;;;;;4.15;2.10;;;;;;;38.11;16.32;99372.06;5070436;28;20040;-70
2022/08/07 11:35:45;;;;;;;5.45;2.53;;;;;;;37.70;17.56;99339.75;5037331;28;20040;-70
2022/08/07 11:38:27;;;;;;;6.60;2.35;;;;;;;37.43;17.69;99347.84;5055297;28;20463;-70
2022/08/07 11:41:10;;;;;;;4.82;2.17;;;;;;;37.32;18.03;99352.97;5037304;28;20385;-70
2022/08/07 11:43:59;;;;;;;7.15;2.20;;;;;;;37.28;17.96;99354.84;5037051;28;20044;-69
2022/08/07 11:47:02;;;;;;;4.65;2.38;;;;;;;37.26;18.59;99351.56;5053245;28;20075;-69
2022/08/07 11:49:33;;;;;;;5.30;2.40;;;;;;;37.26;18.80;99337.72;5036803;28;20040;-70
2022/08/07 11:52:23;;;;;;;9.52;2.20;;;;;;;37.56;17.65;99341.19;5020170;28;20528;-70
2022/08/07 11:55:09;;;;;;;;;;;;;;;37.65;16.98;99345.47;5036342;28;20494;-70
2022/08/07 11:57:46;;;;;;;5.80;2.00;;;;;;;37.61;17.14;99346.50;5054196;28;19975;-70
2022/08/07 12:00:37;;;;;;;6.20;2.20;;;;;;;37.78;17.24;99329.72;5036800;28;20048;-70